Time;durP1;ratioP1;P1;durP2;ratioP2;P2;SDS_P1;SDS_P2;PMS_P1;PMS_P2;Temp;Humidity;BMP_temperature;BMP_pressure;BME280_temperature;BME280_humidity;BME280_pressure;Samples;Min_cycle;Max_cycle;Signal;HPM_P1;HPM_P2
2022/05/24 00:02:12;;;;;;;;;6.25;6.25;24.40;99.90;;;;;;5011363;28;8857;-64
2022/05/24 00:04:43;;;;;;;;;5.00;5.00;24.50;99.90;;;;;;5011108;28;8860;-64
2022/05/24 00:07:22;;;;;;;;;6.00;6.00;24.30;99.90;;;;;;5013903;28;8986;-62
2022/05/24 00:09:54;;;;;;;;;8.00;7.00;24.40;99.90;;;;;;5011010;28;8876;-63
2022/05/24 00:12:26;;;;;;;;;3.25;1.50;24.30;99.90;;;;;;4998176;28;8881;-68
2022/05/24 00:17:56;;;;;;;;;5.75;5.75;24.30;99.90;;;;;;5012020;28;8841;-62
2022/05/24 00:20:35;;;;;;;;;6.25;5.75;24.30;99.90;;;;;;5011643;28;8841;-64
2022/05/24 00:23:05;;;;;;;;;4.25;4.25;24.20;99.90;;;;;;5014863;28;8844;-62
2022/05/24 00:25:39;;;;;;;;;4.50;3.25;24.30;99.90;;;;;;5008579;28;8841;-63
2022/05/24 00:28:10;;;;;;;;;6.25;5.00;24.20;99.90;;;;;;5010865;28;8933;-65
2022/05/24 00:30:41;;;;;;;;;4.50;3.50;24.30;99.90;;;;;;5028307;28;9617;-64
2022/05/24 00:33:12;;;;;;;;;4.75;4.25;24.20;99.90;;;;;;5015316;28;8940;-63
2022/05/24 00:35:45;;;;;;;;;3.00;3.00;24.30;99.90;;;;;;5012346;28;8869;-63
2022/05/24 00:38:25;;;;;;;;;6.00;6.00;24.20;99.90;;;;;;5019038;28;8871;-63
2022/05/24 00:41:24;;;;;;;;;3.50;3.50;24.10;99.90;;;;;;4999111;28;8825;-63
2022/05/24 00:44:03;;;;;;;;;6.00;5.00;24.10;99.90;;;;;;5014995;28;8878;-63
2022/05/24 00:47:10;;;;;;;;;7.00;5.50;24.10;99.90;;;;;;5015698;28;8817;-62
2022/05/24 00:49:51;;;;;;;;;4.00;4.00;24.10;99.90;;;;;;5018084;28;8866;-62
2022/05/24 00:52:29;;;;;;;;;3.25;3.25;24.10;99.90;;;;;;5014870;28;8840;-62
2022/05/24 00:55:07;;;;;;;;;8.00;6.50;23.90;99.90;;;;;;5017464;28;8821;-62
2022/05/24 00:57:45;;;;;;;;;3.00;3.00;23.80;99.90;;;;;;5016513;28;8872;-63
2022/05/24 01:00:19;;;;;;;;;6.50;4.75;23.80;99.90;;;;;;5014871;28;8848;-63
2022/05/24 01:02:53;;;;;;;;;5.00;5.00;23.80;99.90;;;;;;5015065;28;8887;-62
2022/05/24 01:05:29;;;;;;;;;7.25;6.50;23.60;99.90;;;;;;5010136;28;8865;-62
2022/05/24 01:07:59;;;;;;;;;5.00;3.75;23.40;99.90;;;;;;5009052;28;8872;-61
2022/05/24 01:10:43;;;;;;;;;5.00;5.00;23.10;99.90;;;;;;5017303;28;8857;-59
2022/05/24 01:13:17;;;;;;;;;5.00;5.00;23.10;99.90;;;;;;5014404;28;8896;-62
2022/05/24 01:15:51;;;;;;;;;8.00;6.00;23.20;99.90;;;;;;5017092;28;8842;-61
2022/05/24 01:18:24;;;;;;;;;5.00;4.50;23.10;99.90;;;;;;5015158;28;8857;-61
2022/05/24 01:21:04;;;;;;;;;7.00;4.50;22.80;99.90;;;;;;5017533;28;8853;-63
2022/05/24 01:24:14;;;;;;;;;5.00;5.00;22.90;99.90;;;;;;5014054;28;8797;-63
2022/05/24 01:26:57;;;;;;;;;2.50;2.50;23.00;99.90;;;;;;5012181;28;8837;-61
2022/05/24 01:29:27;;;;;;;;;4.25;4.25;22.80;99.90;;;;;;5020650;28;8889;-61
2022/05/24 01:37:50;;;;;;;;;7.00;7.00;22.80;99.90;;;;;;5000574;28;8859;-62
2022/05/24 01:40:20;;;;;;;;;5.50;5.50;22.80;99.90;;;;;;5009790;28;8857;-62
2022/05/24 01:42:50;;;;;;;;;4.75;3.75;22.70;99.90;;;;;;5012959;28;8838;-62
2022/05/24 01:45:30;;;;;;;;;3.25;2.75;22.70;99.90;;;;;;5015957;28;8952;-63
2022/05/24 01:48:06;;;;;;;;;7.75;7.50;22.80;99.90;;;;;;5014061;28;8976;-63
2022/05/24 01:50:38;;;;;;;;;2.00;0.50;22.80;99.90;;;;;;5017275;28;8856;-64
2022/05/24 01:53:16;;;;;;;;;7.25;7.25;22.80;99.90;;;;;;5017968;28;8980;-63
2022/05/24 01:55:53;;;;;;;;;6.75;6.00;22.70;99.90;;;;;;5016621;28;8829;-62
2022/05/24 01:58:28;;;;;;;;;6.00;6.00;22.50;99.90;;;;;;5016406;28;8880;-63
2022/05/24 02:01:05;;;;;;;;;7.00;7.00;22.50;99.90;;;;;;5016828;28;8872;-61
2022/05/24 02:03:39;;;;;;;;;4.00;4.00;22.50;99.90;;;;;;5013056;28;9618;-60
2022/05/24 02:06:26;;;;;;;;;5.50;5.50;22.60;99.90;;;;;;5011697;28;8880;-62
2022/05/24 02:08:58;;;;;;;;;6.00;6.00;22.40;99.90;;;;;;5010145;28;8820;-62
2022/05/24 02:11:31;;;;;;;;;4.75;4.75;22.30;99.90;;;;;;4999776;28;8899;-63
2022/05/24 02:14:10;;;;;;;;;6.25;6.25;22.30;99.90;;;;;;5018363;28;8849;-63
2022/05/24 02:17:04;;;;;;;;;6.75;5.75;22.20;99.90;;;;;;5015056;28;8840;-63
2022/05/24 02:19:37;;;;;;;;;6.00;5.50;22.20;99.90;;;;;;5009921;28;8857;-62
2022/05/24 02:22:14;;;;;;;;;8.25;6.25;22.10;99.90;;;;;;5011534;28;8813;-63
2022/05/24 02:24:46;;;;;;;;;8.00;7.00;22.00;99.90;;;;;;5015237;28;8861;-63
2022/05/24 02:27:19;;;;;;;;;2.00;2.00;21.90;99.90;;;;;;5027879;28;8839;-64
2022/05/24 02:29:51;;;;;;;;;6.00;6.00;21.90;99.90;;;;;;5011069;28;8999;-65
2022/05/24 02:32:22;;;;;;;;;6.00;5.00;21.80;99.90;;;;;;5014510;28;9284;-68
2022/05/24 02:34:54;;;;;;;;;6.00;5.00;21.80;99.90;;;;;;5009749;28;9048;-64
2022/05/24 02:37:33;;;;;;;;;4.33;4.33;21.70;99.90;;;;;;5013662;28;9084;-65
2022/05/24 02:42:53;;;;;;;;;5.00;5.00;21.40;99.90;;;;;;5004909;28;9025;-64
2022/05/24 02:45:24;;;;;;;;;6.67;5.00;21.60;99.90;;;;;;5013501;28;9184;-61
2022/05/24 02:47:54;;;;;;;;;5.67;3.33;21.60;99.90;;;;;;5012843;28;9091;-61
2022/05/24 02:50:26;;;;;;;;;5.67;4.67;21.60;99.90;;;;;;5013034;28;9100;-61
2022/05/24 02:53:01;;;;;;;;;6.00;6.00;21.50;99.90;;;;;;5017431;28;8975;-67
2022/05/24 02:55:32;;;;;;;;;6.00;5.00;21.40;99.90;;;;;;5017824;28;9044;-74
2022/05/24 02:58:04;;;;;;;;;7.00;7.00;21.50;99.90;;;;;;5009110;28;8990;-58
2022/05/24 03:00:35;;;;;;;;;4.00;4.00;21.40;99.90;;;;;;5014226;28;9113;-63
2022/05/24 03:03:06;;;;;;;;;8.67;7.33;21.30;99.90;;;;;;5014483;28;9026;-62
2022/05/24 03:05:38;;;;;;;;;4.00;4.00;21.20;99.90;;;;;;5017162;28;10065;-61
2022/05/24 03:11:05;;;;;;;;;10.33;9.00;21.10;99.90;;;;;;5010098;28;9191;-64
2022/05/24 03:16:36;;;;;;;;;3.67;3.67;20.90;99.90;;;;;;5015725;28;9410;-66
2022/05/24 03:19:08;;;;;;;;;7.00;5.00;20.90;99.90;;;;;;5011696;28;9312;-66
2022/05/24 03:21:40;;;;;;;;;7.00;5.33;20.90;99.90;;;;;;5009900;28;9464;-68
2022/05/24 03:24:12;;;;;;;;;3.33;3.00;20.90;99.90;;;;;;5015080;28;9480;-63
2022/05/24 03:26:43;;;;;;;;;4.00;4.00;20.80;99.90;;;;;;5016360;28;9462;-69
2022/05/24 03:29:14;;;;;;;;;8.33;6.00;20.80;99.90;;;;;;5013714;28;9390;-64
2022/05/24 03:31:48;;;;;;;;;3.33;3.33;20.70;99.90;;;;;;5016807;28;9425;-65
2022/05/24 03:34:19;;;;;;;;;4.00;4.00;20.70;99.90;;;;;;5016958;28;9298;-65
2022/05/24 03:36:49;;;;;;;;;4.67;4.00;20.60;99.90;;;;;;5014657;28;9531;-68
2022/05/24 03:39:20;;;;;;;;;5.67;5.33;20.60;99.90;;;;;;4999875;28;9502;-64
2022/05/24 03:41:52;;;;;;;;;5.33;5.33;20.50;99.90;;;;;;5011681;28;9531;-64
2022/05/24 03:44:23;;;;;;;;;7.50;6.25;20.50;99.90;;;;;;5013333;28;9545;-64
2022/05/24 03:46:55;;;;;;;;;6.00;6.00;20.50;99.90;;;;;;5016762;28;9606;-64
2022/05/24 03:49:34;;;;;;;;;5.00;5.00;20.50;99.90;;;;;;5015305;28;9692;-64
2022/05/24 03:52:05;;;;;;;;;4.00;4.00;20.40;99.90;;;;;;5017431;28;9737;-65
2022/05/24 03:54:37;;;;;;;;;6.00;4.00;20.40;99.90;;;;;;5008701;28;9677;-65
2022/05/24 03:59:57;;;;;;;;;4.67;4.67;20.30;99.90;;;;;;5010437;28;9633;-65
2022/05/24 04:02:40;;;;;;;;;4.50;3.50;20.30;99.90;;;;;;5018057;28;10486;-65
2022/05/24 04:05:11;;;;;;;;;7.25;5.75;20.20;99.90;;;;;;5019182;28;9556;-66
2022/05/24 04:07:44;;;;;;;;;7.00;6.00;20.10;99.90;;;;;;5013898;28;9877;-66
2022/05/24 04:10:16;;;;;;;;;6.50;5.00;20.00;99.90;;;;;;5018659;28;9691;-66
2022/05/24 04:12:50;;;;;;;;;5.50;5.50;20.00;99.90;;;;;;5025803;28;9707;-66
2022/05/24 04:15:23;;;;;;;;;6.00;6.00;19.90;99.90;;;;;;4999108;28;10073;-65
2022/05/24 04:17:54;;;;;;;;;4.00;4.00;19.80;99.90;;;;;;5000724;28;9688;-67
2022/05/24 04:20:26;;;;;;;;;4.00;4.00;19.80;99.90;;;;;;5016971;28;9883;-67
2022/05/24 04:22:59;;;;;;;;;4.75;4.75;19.80;99.90;;;;;;5016888;28;9954;-60
2022/05/24 04:25:31;;;;;;;;;5.75;4.25;19.80;99.90;;;;;;5014087;28;10022;-59
2022/05/24 04:28:02;;;;;;;;;5.75;5.75;19.80;99.90;;;;;;5016802;28;9823;-60
2022/05/24 04:30:33;;;;;;;;;3.75;3.75;19.60;99.90;;;;;;5020007;28;12259;-60
2022/05/24 04:33:05;;;;;;;;;7.25;4.75;19.60;99.90;;;;;;5020212;28;9699;-61
2022/05/24 04:35:35;;;;;;;;;8.75;6.00;19.60;99.90;;;;;;5016211;28;10398;-59
2022/05/24 04:38:06;;;;;;;;;7.25;5.75;19.60;99.90;;;;;;5018502;28;9924;-60
2022/05/24 04:43:26;;;;;;;;;4.50;4.50;19.50;99.90;;;;;;5013864;28;9767;-61
2022/05/24 04:45:56;;;;;;;;;5.75;5.00;19.50;99.90;;;;;;5030684;28;9980;-63
2022/05/24 04:48:27;;;;;;;;;4.00;4.00;19.50;99.90;;;;;;5021516;28;9747;-63
2022/05/24 04:50:59;;;;;;;;;5.75;5.25;19.40;99.90;;;;;;5012600;28;9860;-62
2022/05/24 04:53:29;;;;;;;;;5.00;5.00;19.40;99.90;;;;;;5018773;28;10863;-62
2022/05/24 04:55:59;;;;;;;;;8.50;5.50;19.30;99.90;;;;;;5015353;28;9997;-62
2022/05/24 04:58:30;;;;;;;;;5.50;5.50;19.30;99.90;;;;;;5014981;28;9926;-61
2022/05/24 05:01:01;;;;;;;;;2.75;2.75;19.30;99.90;;;;;;5018636;28;10079;-61
2022/05/24 05:03:32;;;;;;;;;4.50;4.00;19.20;99.90;;;;;;5014100;28;10052;-60
2022/05/24 05:06:06;;;;;;;;;4.75;4.75;19.20;99.90;;;;;;5021681;28;9864;-61
2022/05/24 05:08:36;;;;;;;;;5.25;5.25;19.20;99.90;;;;;;5004674;28;9999;-62
2022/05/24 05:11:08;;;;;;;;;3.00;3.00;19.20;99.90;;;;;;5015946;28;10763;-70
2022/05/24 05:13:39;;;;;;;;;8.00;6.25;19.00;99.90;;;;;;5019746;28;10029;-65
2022/05/24 05:16:12;;;;;;;;;5.00;5.00;19.00;99.90;;;;;;5018722;28;10041;-64
2022/05/24 05:18:44;;;;;;;;;7.75;6.00;19.00;99.90;;;;;;5012761;28;10416;-67
2022/05/24 05:21:14;;;;;;;;;7.25;7.25;18.90;99.90;;;;;;5020643;28;10112;-67
2022/05/24 05:23:47;;;;;;;;;6.50;6.50;19.00;99.90;;;;;;5018789;28;10170;-66
2022/05/24 05:26:17;;;;;;;;;4.25;4.25;18.90;99.90;;;;;;5023292;28;10275;-65
2022/05/24 05:28:48;;;;;;;;;6.00;6.00;18.90;99.90;;;;;;5014629;28;10410;-64
2022/05/24 05:31:22;;;;;;;;;5.25;5.00;18.80;99.90;;;;;;5020893;28;10296;-65
2022/05/24 05:34:00;;;;;;;;;6.00;4.50;18.80;99.90;;;;;;5015256;28;10181;-65
2022/05/24 05:36:33;;;;;;;;;6.00;6.00;18.80;99.90;;;;;;4998551;28;11010;-64
2022/05/24 05:39:06;;;;;;;;;6.50;5.75;18.70;99.90;;;;;;5010164;28;10775;-64
2022/05/24 05:41:37;;;;;;;;;7.00;6.00;18.70;99.90;;;;;;5011917;28;10433;-64
2022/05/24 05:44:07;;;;;;;;;7.00;6.50;18.70;99.90;;;;;;5008749;28;10407;-65
2022/05/24 05:46:38;;;;;;;;;5.75;5.75;18.70;99.90;;;;;;5012234;28;10323;-65
2022/05/24 05:49:11;;;;;;;;;7.00;6.00;18.70;99.90;;;;;;4989261;28;10487;-65
2022/05/24 05:51:42;;;;;;;;;8.00;7.75;18.70;99.90;;;;;;5001425;28;10467;-65
2022/05/24 05:54:15;;;;;;;;;4.00;4.00;18.60;99.90;;;;;;5015430;28;10785;-65
2022/05/24 05:56:48;;;;;;;;;8.25;6.25;18.60;99.90;;;;;;5012755;28;10692;-64
2022/05/24 05:59:19;;;;;;;;;9.00;8.75;18.60;99.90;;;;;;5015345;28;10603;-65
2022/05/24 06:01:50;;;;;;;;;10.00;10.00;18.50;99.90;;;;;;5015208;28;10791;-64
2022/05/24 06:04:20;;;;;;;;;7.75;7.75;18.50;99.90;;;;;;5016422;28;10798;-64
2022/05/24 06:06:53;;;;;;;;;11.50;11.50;18.50;99.90;;;;;;5015076;28;10958;-64
2022/05/24 06:09:25;;;;;;;;;12.25;11.00;18.50;99.90;;;;;;4992998;28;10897;-65
2022/05/24 06:12:03;;;;;;;;;11.00;8.00;18.50;99.90;;;;;;5012831;28;11700;-63
2022/05/24 06:14:36;;;;;;;;;12.50;12.50;18.40;99.90;;;;;;5017076;28;10862;-64
2022/05/24 06:17:27;;;;;;;;;11.00;11.00;18.40;99.90;;;;;;5010185;28;10803;-65
2022/05/24 06:20:03;;;;;;;;;8.75;8.75;18.30;99.90;;;;;;5015069;28;10613;-64
2022/05/24 06:22:37;;;;;;;;;7.75;6.75;18.40;99.90;;;;;;5006402;28;10624;-64
2022/05/24 06:25:17;;;;;;;;;8.00;8.00;18.30;99.90;;;;;;5010991;28;10586;-64
2022/05/24 06:27:47;;;;;;;;;4.50;4.50;18.30;99.90;;;;;;5010180;28;10791;-65
2022/05/24 06:30:23;;;;;;;;;8.75;8.75;18.30;99.90;;;;;;5009310;28;10814;-63
2022/05/24 06:32:54;;;;;;;;;6.00;4.75;18.20;99.90;;;;;;5011890;28;10839;-64
2022/05/24 06:35:25;;;;;;;;;6.75;6.75;18.20;99.90;;;;;;5013889;28;10699;-65
2022/05/24 06:37:57;;;;;;;;;6.00;4.75;18.10;99.90;;;;;;5012278;28;10430;-64
2022/05/24 06:40:27;;;;;;;;;5.00;5.00;18.10;99.90;;;;;;5026751;28;10347;-64
2022/05/24 06:43:02;;;;;;;;;7.25;5.75;18.20;99.90;;;;;;5012766;28;10193;-65
2022/05/24 06:45:34;;;;;;;;;6.75;6.75;18.20;99.90;;;;;;5013059;28;10375;-64
2022/05/24 06:48:08;;;;;;;;;6.00;5.00;18.10;99.90;;;;;;5016396;28;10550;-64
2022/05/24 06:50:40;;;;;;;;;4.00;3.50;18.10;99.90;;;;;;5016776;28;10121;-65
2022/05/24 06:53:11;;;;;;;;;4.00;4.00;18.10;99.90;;;;;;4997062;28;11250;-65
2022/05/24 06:55:42;;;;;;;;;9.00;6.00;18.10;99.90;;;;;;4997350;28;10280;-64
2022/05/24 06:58:16;;;;;;;;;7.00;3.75;18.10;99.90;;;;;;5007961;28;10851;-64
2022/05/24 07:03:42;;;;;;;;;8.25;8.25;18.00;99.90;;;;;;5020427;28;10356;-65
2022/05/24 07:06:15;;;;;;;;;8.00;5.75;18.00;99.90;;;;;;5014690;28;10512;-65
2022/05/24 07:08:47;;;;;;;;;6.50;6.00;17.90;99.90;;;;;;5010056;28;10415;-64
2022/05/24 07:11:22;;;;;;;;;5.75;4.25;18.00;99.90;;;;;;5010395;28;10396;-64
2022/05/24 07:13:56;;;;;;;;;7.00;5.75;17.90;99.90;;;;;;5014284;28;10624;-63
2022/05/24 07:16:38;;;;;;;;;6.50;5.25;17.90;99.90;;;;;;5008752;28;10689;-64
2022/05/24 07:19:09;;;;;;;;;7.00;7.00;17.90;99.90;;;;;;5006307;28;10573;-65
2022/05/24 07:21:39;;;;;;;;;5.00;5.00;17.90;99.90;;;;;;5007654;28;10551;-64
2022/05/24 07:24:14;;;;;;;;;4.75;4.25;17.80;99.90;;;;;;5018681;28;10715;-64
2022/05/24 07:26:45;;;;;;;;;5.75;4.25;17.80;99.90;;;;;;5012989;28;10612;-65
2022/05/24 07:29:24;;;;;;;;;5.50;5.50;17.80;99.90;;;;;;5012414;28;10535;-63
2022/05/24 07:31:56;;;;;;;;;6.00;6.00;17.80;99.90;;;;;;5016632;28;10577;-64
2022/05/24 07:34:27;;;;;;;;;2.75;2.75;17.70;99.90;;;;;;5018836;28;10775;-64
2022/05/24 07:36:57;;;;;;;;;4.75;4.75;17.70;99.90;;;;;;5006973;28;10544;-64
2022/05/24 07:39:31;;;;;;;;;8.75;7.75;17.60;99.90;;;;;;5003674;28;10627;-65
2022/05/24 07:47:46;;;;;;;;;8.00;6.50;17.60;99.90;;;;;;5018700;28;11594;-65
2022/05/24 07:50:17;;;;;;;;;7.50;7.50;17.60;99.90;;;;;;5020080;28;11507;-65
2022/05/24 07:52:49;;;;;;;;;8.75;8.00;17.50;99.90;;;;;;5012891;28;11472;-69
2022/05/24 07:55:18;;;;;;;;;9.25;7.50;17.50;99.90;;;;;;5021879;28;11450;-69
2022/05/24 07:57:48;;;;;;;;;9.75;7.00;17.50;99.90;;;;;;5015673;28;11280;-64
2022/05/24 08:00:23;;;;;;;;;7.25;6.75;17.40;99.90;;;;;;5020137;28;11476;-64
2022/05/24 08:02:57;;;;;;;;;8.25;8.25;17.40;99.90;;;;;;5015993;28;11476;-64
2022/05/24 08:05:34;;;;;;;;;15.75;14.50;17.40;99.90;;;;;;5021639;28;12232;-63
2022/05/24 08:08:06;;;;;;;;;13.50;13.50;17.40;99.90;;;;;;5020813;28;11619;-64
2022/05/24 08:10:40;;;;;;;;;15.00;15.00;17.40;99.90;;;;;;5020730;28;11663;-63
2022/05/24 08:13:13;;;;;;;;;19.50;18.00;17.30;99.90;;;;;;5015174;28;11452;-65
2022/05/24 08:15:43;;;;;;;;;17.25;17.25;17.30;99.90;;;;;;5021411;28;11554;-64
2022/05/24 08:18:14;;;;;;;;;16.50;15.25;17.30;99.90;;;;;;5018014;28;11681;-64
2022/05/24 08:20:43;;;;;;;;;23.75;23.25;17.30;99.90;;;;;;5002882;28;12352;-64
2022/05/24 08:23:14;;;;;;;;;25.50;24.75;17.30;99.90;;;;;;5015231;28;11573;-65
2022/05/24 08:25:45;;;;;;;;;27.75;27.50;17.30;99.90;;;;;;5007633;28;11594;-64
2022/05/24 08:28:15;;;;;;;;;24.75;24.75;17.20;99.90;;;;;;5007366;28;11596;-64
2022/05/24 08:30:46;;;;;;;;;30.00;25.50;17.20;99.90;;;;;;5017052;28;11574;-64
2022/05/24 08:33:18;;;;;;;;;27.50;26.75;17.20;99.90;;;;;;5000562;28;11654;-64
2022/05/24 08:35:50;;;;;;;;;28.75;28.50;17.20;99.90;;;;;;5018532;28;11600;-65
2022/05/24 08:38:28;;;;;;;;;23.25;23.25;17.20;99.90;;;;;;5017502;28;11611;-65
2022/05/24 08:41:03;;;;;;;;;19.75;19.75;17.20;99.90;;;;;;5016578;28;11584;-64
2022/05/24 08:48:22;;;;;;;;;18.25;16.50;17.20;99.90;;;;;;5017411;28;12399;-64
2022/05/24 08:50:11;;;;;;;;;13.00;13.00;17.10;99.90;;;;;;5017431;28;12348;-65
2022/05/24 08:53:02;;;;;;;;;15.50;13.75;17.10;99.90;;;;;;5009953;28;11531;-66
2022/05/24 08:55:43;;;;;;;;;15.25;15.25;17.00;99.90;;;;;;5015329;28;11533;-65
2022/05/24 08:58:50;;;;;;;;;14.50;12.50;17.10;99.90;;;;;;5016016;28;11593;-65
2022/05/24 09:01:35;;;;;;;;;11.00;10.50;17.10;99.90;;;;;;5015087;28;11523;-64
2022/05/24 09:07:09;;;;;;;;;9.75;9.75;17.00;99.90;;;;;;5013750;28;11230;-64
2022/05/24 09:10:12;;;;;;;;;8.75;8.75;17.00;99.90;;;;;;5016288;28;11094;-64
2022/05/24 09:13:10;;;;;;;;;6.50;6.50;17.00;99.90;;;;;;5013189;28;11500;-64
2022/05/24 09:15:59;;;;;;;;;9.50;7.25;17.00;99.90;;;;;;5019461;28;11692;-64
2022/05/24 09:18:34;;;;;;;;;6.00;6.00;17.00;99.90;;;;;;5006782;28;11768;-64
2022/05/24 09:21:05;;;;;;;;;6.50;6.25;17.00;99.90;;;;;;5018189;28;11859;-64
2022/05/24 09:23:36;;;;;;;;;13.00;8.00;16.90;99.90;;;;;;5018813;28;11115;-63
2022/05/24 09:26:12;;;;;;;;;8.25;8.25;16.90;99.90;;;;;;5015419;28;11004;-63
2022/05/24 09:28:43;;;;;;;;;6.25;6.00;16.90;99.90;;;;;;5013151;28;10951;-65
2022/05/24 09:31:41;;;;;;;;;6.25;6.25;16.90;99.90;;;;;;5018975;28;10814;-64
2022/05/24 09:34:20;;;;;;;;;8.00;7.00;16.90;99.90;;;;;;5014862;28;10961;-65
2022/05/24 09:36:59;;;;;;;;;9.75;9.75;16.80;99.90;;;;;;5008690;28;10890;-63
2022/05/24 09:39:45;;;;;;;;;8.00;8.00;16.80;99.90;;;;;;5015000;28;10877;-64
2022/05/24 09:42:28;;;;;;;;;7.50;6.75;16.80;99.90;;;;;;5025901;28;10909;-64
2022/05/24 09:45:09;;;;;;;;;9.75;7.50;16.70;99.90;;;;;;5004359;28;11862;-65
2022/05/24 09:47:46;;;;;;;;;8.00;6.75;16.70;99.90;;;;;;4996128;28;10846;-63
2022/05/24 09:50:17;;;;;;;;;8.00;8.00;16.70;99.90;;;;;;5018224;28;10954;-65
2022/05/24 09:53:02;;;;;;;;;7.50;6.50;16.70;99.90;;;;;;5016644;28;11008;-64
2022/05/24 09:56:19;;;;;;;;;7.50;7.50;16.70;99.90;;;;;;5026721;28;10917;-65
2022/05/24 09:58:52;;;;;;;;;7.50;7.50;16.60;99.90;;;;;;5008668;28;10910;-64
2022/05/24 10:01:50;;;;;;;;;6.50;6.50;16.60;99.90;;;;;;5015427;28;10911;-64
2022/05/24 10:04:34;;;;;;;;;5.50;5.25;16.50;99.90;;;;;;4999331;28;10952;-64
2022/05/24 10:07:26;;;;;;;;;11.75;9.00;16.50;99.90;;;;;;4999815;28;10942;-64
2022/05/24 10:10:27;;;;;;;;;7.00;7.00;16.50;99.90;;;;;;5018807;28;11155;-65
2022/05/24 10:13:24;;;;;;;;;6.25;6.25;16.60;99.90;;;;;;5013536;28;10913;-64
2022/05/24 10:16:14;;;;;;;;;6.00;6.00;16.60;99.90;;;;;;5012080;28;11135;-65
2022/05/24 10:19:11;;;;;;;;;7.75;6.00;16.50;99.90;;;;;;5030020;28;11257;-64
2022/05/24 10:22:00;;;;;;;;;6.50;5.75;16.50;99.90;;;;;;5027985;28;10900;-63
2022/05/24 10:25:04;;;;;;;;;7.00;7.00;16.50;99.90;;;;;;4998097;28;11036;-64
2022/05/24 10:28:08;;;;;;;;;9.00;9.00;16.50;99.90;;;;;;5006028;28;11228;-64
2022/05/24 10:30:56;;;;;;;;;10.75;8.75;16.40;99.90;;;;;;5012945;28;11048;-64
2022/05/24 10:39:45;;;;;;;;;7.50;6.75;16.40;99.90;;;;;;5013232;28;11085;-64
2022/05/24 10:42:36;;;;;;;;;10.00;9.00;16.40;99.90;;;;;;5012062;28;11037;-64
2022/05/24 10:45:49;;;;;;;;;4.00;4.00;16.30;99.90;;;;;;5015193;28;11077;-63
2022/05/24 10:48:43;;;;;;;;;5.25;5.25;16.30;99.90;;;;;;4998495;28;11026;-64
2022/05/24 10:51:35;;;;;;;;;7.00;7.00;16.30;99.90;;;;;;5014993;28;11016;-64
2022/05/24 10:54:33;;;;;;;;;8.25;8.00;16.30;99.90;;;;;;5017196;28;11180;-64
2022/05/24 10:57:11;;;;;;;;;7.00;7.00;16.30;99.90;;;;;;5016811;28;10969;-64
2022/05/24 10:59:49;;;;;;;;;7.00;7.00;16.20;99.90;;;;;;5018352;28;11188;-64
2022/05/24 11:02:50;;;;;;;;;6.00;6.00;16.20;99.90;;;;;;5015707;28;11062;-65
2022/05/24 11:05:52;;;;;;;;;7.00;7.00;16.20;99.90;;;;;;5015774;28;11123;-64
2022/05/24 11:08:30;;;;;;;;;9.50;7.50;16.10;99.90;;;;;;5014858;28;11120;-65
2022/05/24 11:11:21;;;;;;;;;10.00;8.50;16.10;99.90;;;;;;5011767;28;11124;-64
2022/05/24 11:14:00;;;;;;;;;9.00;9.00;16.10;99.90;;;;;;5015559;28;10991;-63
2022/05/24 11:16:44;;;;;;;;;12.25;8.25;16.10;99.90;;;;;;5015499;28;11107;-64
2022/05/24 11:19:20;;;;;;;;;10.00;8.25;16.00;99.90;;;;;;5013390;28;11132;-64
2022/05/24 11:22:12;;;;;;;;;6.00;5.25;16.00;99.90;;;;;;5012392;28;10972;-63
2022/05/24 11:25:16;;;;;;;;;8.00;8.00;16.00;99.90;;;;;;5013425;28;11036;-63
2022/05/24 11:27:56;;;;;;;;;9.00;7.75;15.90;99.90;;;;;;5015278;28;11188;-64
2022/05/24 11:30:39;;;;;;;;;9.00;7.50;15.90;99.90;;;;;;5017480;28;11142;-64
2022/05/24 11:33:19;;;;;;;;;8.50;6.00;15.90;99.90;;;;;;4998616;28;11479;-64
2022/05/24 11:35:52;;;;;;;;;9.75;8.00;15.80;99.90;;;;;;5015201;28;11370;-64
2022/05/24 11:38:25;;;;;;;;;9.00;9.00;15.80;99.90;;;;;;5018744;28;11447;-64
2022/05/24 11:41:12;;;;;;;;;8.75;7.50;15.80;99.90;;;;;;5013528;28;11389;-64
2022/05/24 11:43:50;;;;;;;;;6.75;6.75;15.80;99.90;;;;;;5020971;28;11500;-64
2022/05/24 11:46:38;;;;;;;;;8.25;8.25;15.80;99.90;;;;;;4993925;28;11067;-65
2022/05/24 11:49:24;;;;;;;;;8.50;8.00;15.80;99.90;;;;;;5016709;28;11565;-64
2022/05/24 11:51:57;;;;;;;;;9.50;9.50;15.70;99.90;;;;;;5017694;28;11605;-64
2022/05/24 11:54:29;;;;;;;;;7.50;6.00;15.70;99.90;;;;;;5012108;28;11655;-64
2022/05/24 11:57:07;;;;;;;;;7.25;7.25;15.70;99.90;;;;;;5015276;28;11437;-64
2022/05/24 11:59:48;;;;;;;;;9.25;9.25;15.70;99.90;;;;;;5015299;28;11600;-63
2022/05/24 12:02:32;;;;;;;;;10.25;9.50;15.70;99.90;;;;;;5017268;28;11468;-64
2022/05/24 12:08:31;;;;;;;;;7.00;6.00;15.70;99.90;;;;;;5014317;28;11183;-63
2022/05/24 12:11:06;;;;;;;;;8.00;8.00;15.70;99.90;;;;;;5014829;28;11149;-62
2022/05/24 12:13:56;;;;;;;;;7.50;6.00;15.70;99.90;;;;;;5014342;28;11452;-64
2022/05/24 12:17:09;;;;;;;;;6.50;6.50;15.60;99.90;;;;;;5004753;28;11444;-63
2022/05/24 12:19:41;;;;;;;;;8.00;8.00;15.60;99.90;;;;;;5015280;28;11467;-63
2022/05/24 12:22:20;;;;;;;;;9.50;7.00;15.60;99.90;;;;;;4990947;28;11473;-63
2022/05/24 12:24:54;;;;;;;;;8.75;8.75;15.60;99.90;;;;;;5014258;28;11162;-64
2022/05/24 12:27:45;;;;;;;;;7.50;7.00;15.60;99.90;;;;;;5009876;28;11469;-64
2022/05/24 12:30:23;;;;;;;;;9.00;9.00;15.50;99.90;;;;;;5016981;28;11467;-63
2022/05/24 12:33:11;;;;;;;;;8.75;8.75;15.50;99.90;;;;;;5014855;28;11477;-64
2022/05/24 12:36:05;;;;;;;;;8.00;7.75;15.50;99.90;;;;;;5020423;28;11489;-64
2022/05/24 12:38:38;;;;;;;;;9.00;8.00;15.50;99.90;;;;;;5015104;28;11531;-63
2022/05/24 12:41:30;;;;;;;;;7.50;4.25;15.50;99.90;;;;;;5012122;28;11528;-64
2022/05/24 12:44:30;;;;;;;;;6.75;6.75;15.50;99.90;;;;;;5018744;28;11586;-63
2022/05/24 12:47:17;;;;;;;;;7.50;7.50;15.40;99.90;;;;;;4994998;28;11475;-64
2022/05/24 12:49:51;;;;;;;;;7.25;7.25;15.40;99.90;;;;;;5016269;28;11499;-64
2022/05/24 12:52:27;;;;;;;;;6.00;6.00;15.40;99.90;;;;;;5017137;28;11468;-63
2022/05/24 12:55:08;;;;;;;;;7.00;7.00;15.40;99.90;;;;;;5018930;28;12244;-64
2022/05/24 12:57:47;;;;;;;;;8.50;6.00;15.40;99.90;;;;;;5016734;28;11456;-64
2022/05/24 13:00:22;;;;;;;;;8.00;6.00;15.30;99.90;;;;;;5010827;28;11122;-63
2022/05/24 13:02:54;;;;;;;;;7.50;7.50;15.30;99.90;;;;;;5015495;28;11453;-64
2022/05/24 13:05:45;;;;;;;;;7.50;6.75;15.30;99.90;;;;;;5012980;28;11462;-63
2022/05/24 13:08:17;;;;;;;;;6.00;6.00;15.30;99.90;;;;;;4996553;28;12333;-63
2022/05/24 13:10:52;;;;;;;;;12.25;9.25;15.30;99.90;;;;;;5002655;28;11927;-63
2022/05/24 13:13:24;;;;;;;;;6.00;4.25;15.30;99.90;;;;;;5010814;28;11484;-64
2022/05/24 13:16:01;;;;;;;;;8.25;8.25;15.30;99.90;;;;;;5018958;28;11438;-63
2022/05/24 13:18:35;;;;;;;;;11.25;7.25;15.30;99.90;;;;;;5014499;28;11622;-64
2022/05/24 13:21:08;;;;;;;;;8.50;7.00;15.30;99.90;;;;;;5006762;28;11500;-63
2022/05/24 13:23:41;;;;;;;;;8.00;7.25;15.30;99.90;;;;;;5020286;28;11433;-64
2022/05/24 13:26:16;;;;;;;;;9.75;6.50;15.30;99.90;;;;;;5012230;28;11472;-64
2022/05/24 13:28:56;;;;;;;;;7.00;6.75;15.20;99.90;;;;;;5017848;28;11233;-62
2022/05/24 13:34:35;;;;;;;;;5.50;5.25;15.20;99.90;;;;;;5011797;28;11250;-63
2022/05/24 13:37:12;;;;;;;;;6.25;6.25;15.20;99.90;;;;;;4997591;28;11491;-64
2022/05/24 13:39:53;;;;;;;;;9.00;7.75;15.20;99.90;;;;;;5015227;28;11581;-64
2022/05/24 13:42:30;;;;;;;;;11.25;9.25;15.20;99.90;;;;;;5016462;28;11436;-64
2022/05/24 13:45:06;;;;;;;;;7.25;7.25;15.30;99.90;;;;;;5012954;28;11221;-63
2022/05/24 13:47:39;;;;;;;;;7.75;6.25;15.30;99.90;;;;;;5013089;28;11439;-64
2022/05/24 13:50:37;;;;;;;;;7.50;7.50;15.30;99.90;;;;;;5009328;28;11454;-64
2022/05/24 13:53:25;;;;;;;;;10.00;8.75;15.30;99.90;;;;;;5014198;28;11602;-64
2022/05/24 13:56:01;;;;;;;;;7.00;7.00;15.40;99.90;;;;;;5014562;28;12202;-64
2022/05/24 13:58:40;;;;;;;;;10.00;10.00;15.40;99.90;;;;;;5011852;28;11631;-64
2022/05/24 14:01:30;;;;;;;;;9.75;9.75;15.40;99.90;;;;;;5015745;28;11438;-64
2022/05/24 14:04:05;;;;;;;;;11.75;9.50;15.40;99.90;;;;;;5009480;28;11613;-64
2022/05/24 14:06:43;;;;;;;;;12.25;12.25;15.40;99.90;;;;;;5010689;28;11477;-64
2022/05/24 14:09:14;;;;;;;;;9.75;9.50;15.40;99.90;;;;;;5016193;28;11056;-62
2022/05/24 14:11:51;;;;;;;;;10.75;9.25;15.40;99.90;;;;;;4991725;28;11266;-63
2022/05/24 14:14:22;;;;;;;;;13.75;11.00;15.40;99.90;;;;;;5018124;28;11511;-63
2022/05/24 14:16:55;;;;;;;;;11.75;11.25;15.50;99.90;;;;;;5010831;28;11195;-62
2022/05/24 14:19:25;;;;;;;;;9.00;9.00;15.50;99.90;;;;;;5015225;28;11420;-63
2022/05/24 14:21:58;;;;;;;;;11.00;11.00;15.50;99.90;;;;;;5016638;28;11168;-64
2022/05/24 14:24:38;;;;;;;;;9.25;7.25;15.60;99.90;;;;;;5015272;28;11993;-63
2022/05/24 14:27:12;;;;;;;;;10.25;8.75;15.60;99.90;;;;;;5017190;28;11415;-64
2022/05/24 14:29:45;;;;;;;;;10.00;10.00;15.60;99.90;;;;;;5008233;28;11956;-64
2022/05/24 14:32:17;;;;;;;;;13.25;8.75;15.60;99.90;;;;;;5028295;28;11296;-64